sensor_id;sensor_type;location;lat;lon;timestamp;P1;durP1;ratioP1;P2;durP2;ratioP2
37383;SDS011;23258;49.718;11.082;2023-04-15T00:01:50;4.75;;;4.35;;
37383;SDS011;23258;49.718;11.082;2023-04-15T00:04:20;5.20;;;4.80;;
37383;SDS011;23258;49.718;11.082;2023-04-15T00:06:50;7.78;;;4.50;;
37383;SDS011;23258;49.718;11.082;2023-04-15T00:09:21;5.00;;;4.50;;
37383;SDS011;23258;49.718;11.082;2023-04-15T00:11:50;5.93;;;5.40;;
37383;SDS011;23258;49.718;11.082;2023-04-15T00:14:22;5.63;;;5.13;;
37383;SDS011;23258;49.718;11.082;2023-04-15T00:16:52;5.45;;;4.82;;
37383;SDS011;23258;49.718;11.082;2023-04-15T00:19:23;5.15;;;4.72;;
37383;SDS011;23258;49.718;11.082;2023-04-15T00:21:53;4.80;;;4.15;;
37383;SDS011;23258;49.718;11.082;2023-04-15T00:24:22;5.03;;;4.60;;
37383;SDS011;23258;49.718;11.082;2023-04-15T00:26:52;4.38;;;4.07;;
37383;SDS011;23258;49.718;11.082;2023-04-15T00:29:24;4.25;;;3.95;;
37383;SDS011;23258;49.718;11.082;2023-04-15T00:31:54;4.68;;;4.28;;
37383;SDS011;23258;49.718;11.082;2023-04-15T00:34:24;4.18;;;3.40;;
37383;SDS011;23258;49.718;11.082;2023-04-15T00:36:53;4.35;;;3.97;;
37383;SDS011;23258;49.718;11.082;2023-04-15T00:39:23;5.05;;;4.25;;
37383;SDS011;23258;49.718;11.082;2023-04-15T00:41:53;4.78;;;4.38;;
37383;SDS011;23258;49.718;11.082;2023-04-15T00:44:26;4.70;;;4.35;;
37383;SDS011;23258;49.718;11.082;2023-04-15T00:46:55;4.63;;;4.22;;
37383;SDS011;23258;49.718;11.082;2023-04-15T00:49:25;4.28;;;3.97;;
37383;SDS011;23258;49.718;11.082;2023-04-15T00:51:56;5.03;;;4.50;;
37383;SDS011;23258;49.718;11.082;2023-04-15T00:54:26;7.75;;;4.15;;
37383;SDS011;23258;49.718;11.082;2023-04-15T00:56:55;7.88;;;4.50;;
37383;SDS011;23258;49.718;11.082;2023-04-15T00:59:29;5.05;;;4.00;;
37383;SDS011;23258;49.718;11.082;2023-04-15T01:01:59;4.60;;;3.88;;
37383;SDS011;23258;49.718;11.082;2023-04-15T01:04:29;4.28;;;3.88;;
37383;SDS011;23258;49.718;11.082;2023-04-15T01:06:59;3.92;;;3.33;;
37383;SDS011;23258;49.718;11.082;2023-04-15T01:09:28;3.70;;;3.40;;
37383;SDS011;23258;49.718;11.082;2023-04-15T01:11:58;4.63;;;3.65;;
37383;SDS011;23258;49.718;11.082;2023-04-15T01:14:32;3.95;;;3.65;;
37383;SDS011;23258;49.718;11.082;2023-04-15T01:17:02;4.43;;;4.03;;
37383;SDS011;23258;49.718;11.082;2023-04-15T01:19:33;4.28;;;3.88;;
37383;SDS011;23258;49.718;11.082;2023-04-15T01:22:03;4.80;;;4.40;;
37383;SDS011;23258;49.718;11.082;2023-04-15T01:24:32;4.72;;;4.22;;
37383;SDS011;23258;49.718;11.082;2023-04-15T01:27:05;4.70;;;4.18;;
37383;SDS011;23258;49.718;11.082;2023-04-15T01:29:36;4.55;;;4.20;;
37383;SDS011;23258;49.718;11.082;2023-04-15T01:32:06;4.00;;;3.63;;
37383;SDS011;23258;49.718;11.082;2023-04-15T01:34:36;5.00;;;4.45;;
37383;SDS011;23258;49.718;11.082;2023-04-15T01:37:05;4.13;;;3.80;;
37383;SDS011;23258;49.718;11.082;2023-04-15T01:39:35;4.40;;;4.10;;
37383;SDS011;23258;49.718;11.082;2023-04-15T01:42:07;4.85;;;4.28;;
37383;SDS011;23258;49.718;11.082;2023-04-15T01:44:37;4.25;;;3.88;;
37383;SDS011;23258;49.718;11.082;2023-04-15T01:47:10;4.78;;;4.38;;
37383;SDS011;23258;49.718;11.082;2023-04-15T01:49:40;4.45;;;4.05;;
37383;SDS011;23258;49.718;11.082;2023-04-15T01:52:10;4.60;;;4.18;;
37383;SDS011;23258;49.718;11.082;2023-04-15T01:54:39;5.85;;;4.28;;
37383;SDS011;23258;49.718;11.082;2023-04-15T01:57:13;4.65;;;4.28;;
37383;SDS011;23258;49.718;11.082;2023-04-15T01:59:43;4.88;;;4.47;;
37383;SDS011;23258;49.718;11.082;2023-04-15T02:02:13;4.55;;;4.22;;
37383;SDS011;23258;49.718;11.082;2023-04-15T02:04:43;5.40;;;4.28;;
37383;SDS011;23258;49.718;11.082;2023-04-15T02:07:14;4.47;;;4.07;;
37383;SDS011;23258;49.718;11.082;2023-04-15T02:09:45;4.90;;;4.50;;
37383;SDS011;23258;49.718;11.082;2023-04-15T02:12:17;6.80;;;4.75;;
37383;SDS011;23258;49.718;11.082;2023-04-15T02:14:48;4.55;;;4.15;;
37383;SDS011;23258;49.718;11.082;2023-04-15T02:17:17;4.30;;;4.00;;
37383;SDS011;23258;49.718;11.082;2023-04-15T02:19:47;4.47;;;4.13;;
37383;SDS011;23258;49.718;11.082;2023-04-15T02:22:17;4.57;;;4.18;;
37383;SDS011;23258;49.718;11.082;2023-04-15T02:24:46;4.47;;;4.07;;
37383;SDS011;23258;49.718;11.082;2023-04-15T02:27:18;4.35;;;3.95;;
37383;SDS011;23258;49.718;11.082;2023-04-15T02:29:49;4.10;;;3.70;;
37383;SDS011;23258;49.718;11.082;2023-04-15T02:32:18;7.18;;;3.75;;
37383;SDS011;23258;49.718;11.082;2023-04-15T02:34:51;4.38;;;4.07;;
37383;SDS011;23258;49.718;11.082;2023-04-15T02:37:21;4.88;;;4.05;;
37383;SDS011;23258;49.718;11.082;2023-04-15T02:39:54;3.90;;;3.60;;
37383;SDS011;23258;49.718;11.082;2023-04-15T02:42:26;4.30;;;3.90;;
37383;SDS011;23258;49.718;11.082;2023-04-15T02:44:59;4.07;;;3.78;;
37383;SDS011;23258;49.718;11.082;2023-04-15T02:47:32;4.93;;;4.53;;
37383;SDS011;23258;49.718;11.082;2023-04-15T02:50:05;4.70;;;4.25;;
37383;SDS011;23258;49.718;11.082;2023-04-15T02:52:39;4.88;;;4.22;;
37383;SDS011;23258;49.718;11.082;2023-04-15T02:55:10;5.03;;;4.57;;
37383;SDS011;23258;49.718;11.082;2023-04-15T02:57:42;3.80;;;3.50;;
37383;SDS011;23258;49.718;11.082;2023-04-15T03:00:12;4.25;;;3.95;;
37383;SDS011;23258;49.718;11.082;2023-04-15T03:02:45;4.80;;;4.32;;
37383;SDS011;23258;49.718;11.082;2023-04-15T03:05:18;4.95;;;4.55;;
37383;SDS011;23258;49.718;11.082;2023-04-15T03:07:49;4.95;;;4.25;;
37383;SDS011;23258;49.718;11.082;2023-04-15T03:10:19;4.55;;;4.25;;
37383;SDS011;23258;49.718;11.082;2023-04-15T03:12:52;4.50;;;4.10;;
37383;SDS011;23258;49.718;11.082;2023-04-15T03:15:22;6.07;;;5.47;;
37383;SDS011;23258;49.718;11.082;2023-04-15T03:17:53;5.05;;;4.60;;
37383;SDS011;23258;49.718;11.082;2023-04-15T03:20:23;4.88;;;4.47;;
37383;SDS011;23258;49.718;11.082;2023-04-15T03:22:53;6.10;;;4.35;;
37383;SDS011;23258;49.718;11.082;2023-04-15T03:25:24;4.78;;;4.38;;
37383;SDS011;23258;49.718;11.082;2023-04-15T03:27:56;4.85;;;4.45;;
37383;SDS011;23258;49.718;11.082;2023-04-15T03:30:25;5.30;;;4.57;;
37383;SDS011;23258;49.718;11.082;2023-04-15T03:32:55;5.28;;;4.32;;
37383;SDS011;23258;49.718;11.082;2023-04-15T03:35:25;4.25;;;3.92;;
37383;SDS011;23258;49.718;11.082;2023-04-15T03:37:55;4.60;;;4.28;;
37383;SDS011;23258;49.718;11.082;2023-04-15T03:40:24;6.13;;;4.20;;
37383;SDS011;23258;49.718;11.082;2023-04-15T03:42:56;4.57;;;4.10;;
37383;SDS011;23258;49.718;11.082;2023-04-15T03:45:26;5.20;;;4.80;;
37383;SDS011;23258;49.718;11.082;2023-04-15T03:47:56;5.70;;;4.68;;
37383;SDS011;23258;49.718;11.082;2023-04-15T03:50:42;5.45;;;4.60;;
37383;SDS011;23258;49.718;11.082;2023-04-15T03:53:12;5.50;;;5.00;;
37383;SDS011;23258;49.718;11.082;2023-04-15T03:55:41;4.50;;;4.20;;
37383;SDS011;23258;49.718;11.082;2023-04-15T03:58:13;5.38;;;4.25;;
37383;SDS011;23258;49.718;11.082;2023-04-15T04:00:43;4.53;;;4.13;;
37383;SDS011;23258;49.718;11.082;2023-04-15T04:03:13;4.40;;;4.10;;
37383;SDS011;23258;49.718;11.082;2023-04-15T04:05:43;5.60;;;5.10;;
37383;SDS011;23258;49.718;11.082;2023-04-15T04:08:12;5.90;;;4.65;;
37383;SDS011;23258;49.718;11.082;2023-04-15T04:10:42;5.25;;;4.75;;
37383;SDS011;23258;49.718;11.082;2023-04-15T04:13:14;4.88;;;4.47;;
37383;SDS011;23258;49.718;11.082;2023-04-15T04:15:44;5.63;;;4.97;;
37383;SDS011;23258;49.718;11.082;2023-04-15T04:18:13;5.20;;;4.70;;
37383;SDS011;23258;49.718;11.082;2023-04-15T04:20:43;4.88;;;4.43;;
37383;SDS011;23258;49.718;11.082;2023-04-15T04:23:13;5.50;;;5.00;;
37383;SDS011;23258;49.718;11.082;2023-04-15T04:25:42;4.70;;;4.30;;
37383;SDS011;23258;49.718;11.082;2023-04-15T04:28:14;5.13;;;4.63;;
37383;SDS011;23258;49.718;11.082;2023-04-15T04:30:44;6.60;;;4.93;;
37383;SDS011;23258;49.718;11.082;2023-04-15T04:33:14;5.25;;;4.80;;
37383;SDS011;23258;49.718;11.082;2023-04-15T04:35:43;4.82;;;4.38;;
37383;SDS011;23258;49.718;11.082;2023-04-15T04:38:13;5.57;;;5.07;;
37383;SDS011;23258;49.718;11.082;2023-04-15T04:40:43;4.38;;;3.97;;
37383;SDS011;23258;49.718;11.082;2023-04-15T04:43:15;5.00;;;4.47;;
37383;SDS011;23258;49.718;11.082;2023-04-15T04:45:44;4.65;;;4.20;;
37383;SDS011;23258;49.718;11.082;2023-04-15T04:48:14;4.57;;;4.28;;
37383;SDS011;23258;49.718;11.082;2023-04-15T04:50:44;4.88;;;4.25;;
37383;SDS011;23258;49.718;11.082;2023-04-15T04:53:13;3.92;;;3.63;;
37383;SDS011;23258;49.718;11.082;2023-04-15T04:55:43;4.82;;;4.43;;
37383;SDS011;23258;49.718;11.082;2023-04-15T04:58:16;4.57;;;4.18;;
37383;SDS011;23258;49.718;11.082;2023-04-15T05:00:45;3.70;;;3.50;;
37383;SDS011;23258;49.718;11.082;2023-04-15T05:03:15;4.57;;;4.18;;
37383;SDS011;23258;49.718;11.082;2023-04-15T05:05:45;7.72;;;4.22;;
37383;SDS011;23258;49.718;11.082;2023-04-15T05:08:15;4.22;;;3.60;;
37383;SDS011;23258;49.718;11.082;2023-04-15T05:10:45;4.65;;;4.25;;
37383;SDS011;23258;49.718;11.082;2023-04-15T05:13:17;4.50;;;3.67;;
37383;SDS011;23258;49.718;11.082;2023-04-15T05:15:47;4.18;;;3.78;;
37383;SDS011;23258;49.718;11.082;2023-04-15T05:18:17;4.22;;;3.83;;
37383;SDS011;23258;49.718;11.082;2023-04-15T05:20:46;3.70;;;3.42;;
37383;SDS011;23258;49.718;11.082;2023-04-15T05:23:16;5.03;;;3.70;;
37383;SDS011;23258;49.718;11.082;2023-04-15T05:25:46;4.05;;;3.65;;
37383;SDS011;23258;49.718;11.082;2023-04-15T05:28:18;4.15;;;3.85;;
37383;SDS011;23258;49.718;11.082;2023-04-15T05:30:48;4.18;;;3.72;;
37383;SDS011;23258;49.718;11.082;2023-04-15T05:33:18;4.07;;;3.72;;
37383;SDS011;23258;49.718;11.082;2023-04-15T05:35:47;4.55;;;4.15;;
37383;SDS011;23258;49.718;11.082;2023-04-15T05:38:17;3.95;;;3.60;;
37383;SDS011;23258;49.718;11.082;2023-04-15T05:40:46;3.88;;;3.58;;
37383;SDS011;23258;49.718;11.082;2023-04-15T05:43:19;3.67;;;3.42;;
37383;SDS011;23258;49.718;11.082;2023-04-15T05:45:48;5.13;;;3.30;;
37383;SDS011;23258;49.718;11.082;2023-04-15T05:48:18;4.68;;;4.15;;
37383;SDS011;23258;49.718;11.082;2023-04-15T05:50:48;4.50;;;3.78;;
37383;SDS011;23258;49.718;11.082;2023-04-15T05:53:18;4.00;;;3.70;;
37383;SDS011;23258;49.718;11.082;2023-04-15T05:55:47;3.92;;;3.63;;
37383;SDS011;23258;49.718;11.082;2023-04-15T05:58:20;4.00;;;3.70;;
37383;SDS011;23258;49.718;11.082;2023-04-15T06:00:49;4.28;;;3.58;;
37383;SDS011;23258;49.718;11.082;2023-04-15T06:03:19;6.35;;;4.50;;
37383;SDS011;23258;49.718;11.082;2023-04-15T06:05:49;4.72;;;4.30;;
37383;SDS011;23258;49.718;11.082;2023-04-15T06:08:19;4.68;;;4.28;;
37383;SDS011;23258;49.718;11.082;2023-04-15T06:10:48;5.07;;;4.63;;
37383;SDS011;23258;49.718;11.082;2023-04-15T06:13:20;5.00;;;4.60;;
37383;SDS011;23258;49.718;11.082;2023-04-15T06:15:50;4.65;;;4.18;;
37383;SDS011;23258;49.718;11.082;2023-04-15T06:18:20;5.03;;;4.38;;
37383;SDS011;23258;49.718;11.082;2023-04-15T06:20:49;4.38;;;4.07;;
37383;SDS011;23258;49.718;11.082;2023-04-15T06:23:19;4.10;;;3.80;;
37383;SDS011;23258;49.718;11.082;2023-04-15T06:25:50;4.00;;;3.70;;
37383;SDS011;23258;49.718;11.082;2023-04-15T06:28:22;4.63;;;4.22;;
37383;SDS011;23258;49.718;11.082;2023-04-15T06:30:52;4.53;;;4.15;;
37383;SDS011;23258;49.718;11.082;2023-04-15T06:33:21;4.10;;;3.80;;
37383;SDS011;23258;49.718;11.082;2023-04-15T06:35:51;4.28;;;3.97;;
37383;SDS011;23258;49.718;11.082;2023-04-15T06:38:21;4.53;;;4.13;;
37383;SDS011;23258;49.718;11.082;2023-04-15T06:40:50;4.60;;;4.20;;
37383;SDS011;23258;49.718;11.082;2023-04-15T06:43:23;5.15;;;4.65;;
37383;SDS011;23258;49.718;11.082;2023-04-15T06:45:52;4.53;;;4.22;;
37383;SDS011;23258;49.718;11.082;2023-04-15T06:48:22;7.40;;;5.63;;
37383;SDS011;23258;49.718;11.082;2023-04-15T06:50:53;5.60;;;5.10;;
37383;SDS011;23258;49.718;11.082;2023-04-15T06:53:23;5.05;;;4.57;;
37383;SDS011;23258;49.718;11.082;2023-04-15T06:55:53;5.95;;;4.90;;
37383;SDS011;23258;49.718;11.082;2023-04-15T06:58:25;5.82;;;5.28;;
37383;SDS011;23258;49.718;11.082;2023-04-15T07:00:55;4.63;;;4.30;;
37383;SDS011;23258;49.718;11.082;2023-04-15T07:03:25;4.97;;;4.53;;
37383;SDS011;23258;49.718;11.082;2023-04-15T07:05:58;5.25;;;4.85;;
37383;SDS011;23258;49.718;11.082;2023-04-15T07:08:32;7.47;;;5.10;;
37383;SDS011;23258;49.718;11.082;2023-04-15T07:11:02;5.35;;;4.88;;
37383;SDS011;23258;49.718;11.082;2023-04-15T07:13:34;4.53;;;4.18;;
37383;SDS011;23258;49.718;11.082;2023-04-15T07:16:04;5.30;;;4.90;;
37383;SDS011;23258;49.718;11.082;2023-04-15T07:18:34;7.95;;;4.60;;
37383;SDS011;23258;49.718;11.082;2023-04-15T07:21:04;5.43;;;4.93;;
37383;SDS011;23258;49.718;11.082;2023-04-15T07:23:34;6.05;;;4.70;;
37383;SDS011;23258;49.718;11.082;2023-04-15T07:26:03;4.60;;;4.20;;
37383;SDS011;23258;49.718;11.082;2023-04-15T07:28:36;4.70;;;4.25;;
37383;SDS011;23258;49.718;11.082;2023-04-15T07:31:06;4.75;;;4.35;;
37383;SDS011;23258;49.718;11.082;2023-04-15T07:33:35;4.70;;;4.25;;
37383;SDS011;23258;49.718;11.082;2023-04-15T07:36:05;4.88;;;4.47;;
37383;SDS011;23258;49.718;11.082;2023-04-15T07:38:35;4.53;;;4.13;;
37383;SDS011;23258;49.718;11.082;2023-04-15T07:41:04;4.03;;;3.67;;
37383;SDS011;23258;49.718;11.082;2023-04-15T07:43:37;5.30;;;4.47;;
37383;SDS011;23258;49.718;11.082;2023-04-15T07:46:07;8.18;;;4.20;;
37383;SDS011;23258;49.718;11.082;2023-04-15T07:48:36;5.32;;;4.78;;
37383;SDS011;23258;49.718;11.082;2023-04-15T07:51:06;4.45;;;4.00;;
37383;SDS011;23258;49.718;11.082;2023-04-15T07:53:36;5.70;;;5.20;;
37383;SDS011;23258;49.718;11.082;2023-04-15T07:56:06;4.70;;;4.30;;
37383;SDS011;23258;49.718;11.082;2023-04-15T07:58:38;6.00;;;4.88;;
37383;SDS011;23258;49.718;11.082;2023-04-15T08:01:08;6.63;;;4.72;;
37383;SDS011;23258;49.718;11.082;2023-04-15T08:03:38;5.38;;;4.97;;
37383;SDS011;23258;49.718;11.082;2023-04-15T08:06:09;7.35;;;5.00;;
37383;SDS011;23258;49.718;11.082;2023-04-15T08:08:38;5.13;;;4.72;;
37383;SDS011;23258;49.718;11.082;2023-04-15T08:11:08;5.82;;;5.28;;
37383;SDS011;23258;49.718;11.082;2023-04-15T08:13:40;5.75;;;5.18;;
37383;SDS011;23258;49.718;11.082;2023-04-15T08:16:15;5.10;;;4.60;;
37383;SDS011;23258;49.718;11.082;2023-04-15T08:18:46;5.55;;;5.00;;
37383;SDS011;23258;49.718;11.082;2023-04-15T08:21:16;6.00;;;5.40;;
37383;SDS011;23258;49.718;11.082;2023-04-15T08:23:46;4.75;;;4.35;;
37383;SDS011;23258;49.718;11.082;2023-04-15T08:26:16;5.43;;;4.93;;
37383;SDS011;23258;49.718;11.082;2023-04-15T08:28:49;7.05;;;4.68;;
37383;SDS011;23258;49.718;11.082;2023-04-15T08:31:19;5.72;;;4.82;;
37383;SDS011;23258;49.718;11.082;2023-04-15T08:33:48;5.30;;;4.53;;
37383;SDS011;23258;49.718;11.082;2023-04-15T08:36:20;6.60;;;6.00;;
37383;SDS011;23258;49.718;11.082;2023-04-15T08:38:50;5.20;;;4.70;;
37383;SDS011;23258;49.718;11.082;2023-04-15T08:41:20;4.75;;;3.50;;
37383;SDS011;23258;49.718;11.082;2023-04-15T08:43:56;4.55;;;4.15;;
37383;SDS011;23258;49.718;11.082;2023-04-15T08:46:25;4.45;;;4.05;;
37383;SDS011;23258;49.718;11.082;2023-04-15T08:48:56;4.47;;;4.07;;
37383;SDS011;23258;49.718;11.082;2023-04-15T08:51:27;4.50;;;4.10;;
37383;SDS011;23258;49.718;11.082;2023-04-15T08:53:56;5.68;;;4.57;;
37383;SDS011;23258;49.718;11.082;2023-04-15T08:56:27;4.40;;;4.03;;
37383;SDS011;23258;49.718;11.082;2023-04-15T08:59:02;5.20;;;3.67;;
37383;SDS011;23258;49.718;11.082;2023-04-15T09:01:31;4.13;;;3.83;;
37383;SDS011;23258;49.718;11.082;2023-04-15T09:04:02;5.28;;;4.25;;
37383;SDS011;23258;49.718;11.082;2023-04-15T09:06:33;6.28;;;4.10;;
37383;SDS011;23258;49.718;11.082;2023-04-15T09:09:03;3.80;;;3.50;;
37383;SDS011;23258;49.718;11.082;2023-04-15T09:11:33;4.35;;;3.95;;
37383;SDS011;23258;49.718;11.082;2023-04-15T09:14:05;4.28;;;3.88;;
37383;SDS011;23258;49.718;11.082;2023-04-15T09:19:21;3.90;;;3.50;;
37383;SDS011;23258;49.718;11.082;2023-04-15T09:21:51;4.38;;;3.97;;
37383;SDS011;23258;49.718;11.082;2023-04-15T09:24:25;4.30;;;3.72;;
37383;SDS011;23258;49.718;11.082;2023-04-15T09:27:02;4.20;;;3.85;;
37383;SDS011;23258;49.718;11.082;2023-04-15T09:29:35;4.45;;;3.45;;
37383;SDS011;23258;49.718;11.082;2023-04-15T09:32:09;4.43;;;4.03;;
37383;SDS011;23258;49.718;11.082;2023-04-15T09:34:39;3.72;;;3.42;;
37383;SDS011;23258;49.718;11.082;2023-04-15T09:37:08;3.58;;;3.28;;
37383;SDS011;23258;49.718;11.082;2023-04-15T09:39:56;4.32;;;3.92;;
37383;SDS011;23258;49.718;11.082;2023-04-15T09:42:26;4.40;;;4.03;;
37383;SDS011;23258;49.718;11.082;2023-04-15T09:45:09;4.00;;;3.70;;
37383;SDS011;23258;49.718;11.082;2023-04-15T09:47:39;4.40;;;4.10;;
37383;SDS011;23258;49.718;11.082;2023-04-15T09:50:08;4.70;;;4.20;;
37383;SDS011;23258;49.718;11.082;2023-04-15T09:52:40;4.55;;;4.15;;
37383;SDS011;23258;49.718;11.082;2023-04-15T09:55:10;4.97;;;4.55;;
37383;SDS011;23258;49.718;11.082;2023-04-15T09:57:40;4.35;;;3.95;;
37383;SDS011;23258;49.718;11.082;2023-04-15T10:00:13;5.03;;;4.35;;
37383;SDS011;23258;49.718;11.082;2023-04-15T10:02:44;4.72;;;4.32;;
37383;SDS011;23258;49.718;11.082;2023-04-15T10:05:15;4.88;;;3.85;;
37383;SDS011;23258;49.718;11.082;2023-04-15T10:07:46;4.85;;;4.35;;
37383;SDS011;23258;49.718;11.082;2023-04-15T10:10:15;3.70;;;3.40;;
37383;SDS011;23258;49.718;11.082;2023-04-15T10:12:45;5.03;;;4.53;;
37383;SDS011;23258;49.718;11.082;2023-04-15T10:15:18;4.22;;;3.83;;
37383;SDS011;23258;49.718;11.082;2023-04-15T10:17:48;9.52;;;7.05;;
37383;SDS011;23258;49.718;11.082;2023-04-15T10:20:19;5.20;;;4.70;;
37383;SDS011;23258;49.718;11.082;2023-04-15T10:22:49;14.35;;;7.20;;
37383;SDS011;23258;49.718;11.082;2023-04-15T10:25:19;6.95;;;5.18;;
37383;SDS011;23258;49.718;11.082;2023-04-15T10:27:49;4.45;;;4.10;;
37383;SDS011;23258;49.718;11.082;2023-04-15T10:30:22;4.88;;;4.40;;
37383;SDS011;23258;49.718;11.082;2023-04-15T10:32:52;5.15;;;4.07;;
37383;SDS011;23258;49.718;11.082;2023-04-15T10:35:22;4.60;;;4.20;;
37383;SDS011;23258;49.718;11.082;2023-04-15T10:37:52;4.75;;;4.35;;
37383;SDS011;23258;49.718;11.082;2023-04-15T10:40:26;3.72;;;3.42;;
37383;SDS011;23258;49.718;11.082;2023-04-15T10:42:58;3.35;;;3.08;;
37383;SDS011;23258;49.718;11.082;2023-04-15T10:45:31;3.10;;;2.90;;
37383;SDS011;23258;49.718;11.082;2023-04-15T10:48:03;2.90;;;2.70;;
37383;SDS011;23258;49.718;11.082;2023-04-15T10:50:32;2.92;;;2.72;;
37383;SDS011;23258;49.718;11.082;2023-04-15T10:53:02;3.22;;;2.92;;
37383;SDS011;23258;49.718;11.082;2023-04-15T10:55:33;2.08;;;1.98;;
37383;SDS011;23258;49.718;11.082;2023-04-15T10:58:02;2.10;;;1.92;;
37383;SDS011;23258;49.718;11.082;2023-04-15T11:00:35;2.45;;;2.25;;
37383;SDS011;23258;49.718;11.082;2023-04-15T11:03:06;2.60;;;2.40;;
37383;SDS011;23258;49.718;11.082;2023-04-15T11:05:48;2.30;;;2.20;;
37383;SDS011;23258;49.718;11.082;2023-04-15T11:08:19;2.30;;;2.05;;
37383;SDS011;23258;49.718;11.082;2023-04-15T11:10:49;3.10;;;2.80;;
37383;SDS011;23258;49.718;11.082;2023-04-15T11:13:21;2.88;;;2.67;;
37383;SDS011;23258;49.718;11.082;2023-04-15T11:15:56;2.28;;;2.17;;
37383;SDS011;23258;49.718;11.082;2023-04-15T11:18:28;2.63;;;2.42;;
37383;SDS011;23258;49.718;11.082;2023-04-15T11:20:59;2.30;;;2.20;;
37383;SDS011;23258;49.718;11.082;2023-04-15T11:23:30;2.80;;;2.60;;
37383;SDS011;23258;49.718;11.082;2023-04-15T11:26:01;3.58;;;3.13;;
37383;SDS011;23258;49.718;11.082;2023-04-15T11:28:31;3.00;;;2.78;;
37383;SDS011;23258;49.718;11.082;2023-04-15T11:31:09;3.28;;;3.05;;
37383;SDS011;23258;49.718;11.082;2023-04-15T11:33:46;2.75;;;2.50;;
37383;SDS011;23258;49.718;11.082;2023-04-15T11:36:16;2.88;;;2.67;;
37383;SDS011;23258;49.718;11.082;2023-04-15T11:38:46;2.50;;;2.40;;
37383;SDS011;23258;49.718;11.082;2023-04-15T11:41:18;4.60;;;3.72;;
37383;SDS011;23258;49.718;11.082;2023-04-15T11:43:48;4.55;;;3.42;;
37383;SDS011;23258;49.718;11.082;2023-04-15T11:46:27;2.75;;;2.55;;
37383;SDS011;23258;49.718;11.082;2023-04-15T11:48:57;3.83;;;3.45;;
37383;SDS011;23258;49.718;11.082;2023-04-15T11:51:26;6.35;;;3.90;;
37383;SDS011;23258;49.718;11.082;2023-04-15T11:54:00;2.50;;;2.25;;
37383;SDS011;23258;49.718;11.082;2023-04-15T11:56:30;2.55;;;2.35;;
37383;SDS011;23258;49.718;11.082;2023-04-15T11:59:00;3.15;;;2.83;;
37383;SDS011;23258;49.718;11.082;2023-04-15T12:01:33;3.08;;;2.88;;
37383;SDS011;23258;49.718;11.082;2023-04-15T12:04:09;2.55;;;2.35;;
37383;SDS011;23258;49.718;11.082;2023-04-15T12:06:40;2.92;;;2.55;;
37383;SDS011;23258;49.718;11.082;2023-04-15T12:09:10;2.88;;;2.67;;
37383;SDS011;23258;49.718;11.082;2023-04-15T12:11:41;3.42;;;2.58;;
37383;SDS011;23258;49.718;11.082;2023-04-15T12:14:12;2.78;;;2.58;;
37383;SDS011;23258;49.718;11.082;2023-04-15T12:16:47;2.13;;;1.92;;
37383;SDS011;23258;49.718;11.082;2023-04-15T12:19:22;2.72;;;2.55;;
37383;SDS011;23258;49.718;11.082;2023-04-15T12:21:52;2.25;;;2.15;;
37383;SDS011;23258;49.718;11.082;2023-04-15T12:24:24;2.40;;;2.20;;
37383;SDS011;23258;49.718;11.082;2023-04-15T12:26:56;2.03;;;1.92;;
37383;SDS011;23258;49.718;11.082;2023-04-15T12:29:28;2.17;;;2.08;;
37383;SDS011;23258;49.718;11.082;2023-04-15T12:32:03;2.17;;;2.08;;
37383;SDS011;23258;49.718;11.082;2023-04-15T12:34:34;2.20;;;2.10;;
37383;SDS011;23258;49.718;11.082;2023-04-15T12:37:04;2.20;;;2.10;;
37383;SDS011;23258;49.718;11.082;2023-04-15T12:39:35;1.80;;;1.70;;
37383;SDS011;23258;49.718;11.082;2023-04-15T12:42:05;4.47;;;2.10;;
37383;SDS011;23258;49.718;11.082;2023-04-15T12:44:35;3.17;;;2.08;;
37383;SDS011;23258;49.718;11.082;2023-04-15T12:47:08;2.03;;;1.90;;
37383;SDS011;23258;49.718;11.082;2023-04-15T12:49:38;2.33;;;2.13;;
37383;SDS011;23258;49.718;11.082;2023-04-15T12:52:07;2.72;;;2.53;;
37383;SDS011;23258;49.718;11.082;2023-04-15T12:54:37;1.90;;;1.80;;
37383;SDS011;23258;49.718;11.082;2023-04-15T12:57:07;1.70;;;1.60;;
37383;SDS011;23258;49.718;11.082;2023-04-15T12:59:37;2.05;;;1.95;;
37383;SDS011;23258;49.718;11.082;2023-04-15T13:02:09;2.38;;;2.13;;
37383;SDS011;23258;49.718;11.082;2023-04-15T13:04:39;1.88;;;1.77;;
37383;SDS011;23258;49.718;11.082;2023-04-15T13:07:09;1.73;;;1.63;;
37383;SDS011;23258;49.718;11.082;2023-04-15T13:09:39;2.08;;;1.90;;
37383;SDS011;23258;49.718;11.082;2023-04-15T13:12:08;2.10;;;1.90;;
37383;SDS011;23258;49.718;11.082;2023-04-15T13:14:39;1.83;;;1.73;;
37383;SDS011;23258;49.718;11.082;2023-04-15T13:17:11;2.30;;;2.08;;
37383;SDS011;23258;49.718;11.082;2023-04-15T13:19:43;2.45;;;2.15;;
37383;SDS011;23258;49.718;11.082;2023-04-15T13:22:13;2.28;;;2.13;;
37383;SDS011;23258;49.718;11.082;2023-04-15T13:24:42;3.25;;;2.60;;
37383;SDS011;23258;49.718;11.082;2023-04-15T13:27:12;2.50;;;2.30;;
37383;SDS011;23258;49.718;11.082;2023-04-15T13:29:42;1.98;;;1.88;;
37383;SDS011;23258;49.718;11.082;2023-04-15T13:32:14;2.13;;;1.92;;
37383;SDS011;23258;49.718;11.082;2023-04-15T13:34:44;1.85;;;1.75;;
37383;SDS011;23258;49.718;11.082;2023-04-15T13:37:13;1.80;;;1.70;;
37383;SDS011;23258;49.718;11.082;2023-04-15T13:39:43;1.83;;;1.73;;
37383;SDS011;23258;49.718;11.082;2023-04-15T13:42:12;1.88;;;1.77;;
37383;SDS011;23258;49.718;11.082;2023-04-15T13:44:42;1.92;;;1.83;;
37383;SDS011;23258;49.718;11.082;2023-04-15T13:47:14;1.52;;;1.42;;
37383;SDS011;23258;49.718;11.082;2023-04-15T13:49:44;1.52;;;1.42;;
37383;SDS011;23258;49.718;11.082;2023-04-15T13:52:14;1.92;;;1.83;;
37383;SDS011;23258;49.718;11.082;2023-04-15T13:54:43;2.60;;;2.40;;
37383;SDS011;23258;49.718;11.082;2023-04-15T13:57:33;2.90;;;2.70;;
37383;SDS011;23258;49.718;11.082;2023-04-15T14:00:03;1.90;;;1.80;;
37383;SDS011;23258;49.718;11.082;2023-04-15T14:02:36;2.13;;;1.52;;
37383;SDS011;23258;49.718;11.082;2023-04-15T14:05:06;2.03;;;1.92;;
37383;SDS011;23258;49.718;11.082;2023-04-15T14:07:36;1.80;;;1.70;;
37383;SDS011;23258;49.718;11.082;2023-04-15T14:10:06;1.40;;;1.38;;
37383;SDS011;23258;49.718;11.082;2023-04-15T14:12:36;1.80;;;1.70;;
37383;SDS011;23258;49.718;11.082;2023-04-15T14:15:06;1.90;;;1.80;;
37383;SDS011;23258;49.718;11.082;2023-04-15T14:17:39;1.88;;;1.77;;
37383;SDS011;23258;49.718;11.082;2023-04-15T14:20:09;1.77;;;1.67;;
37383;SDS011;23258;49.718;11.082;2023-04-15T14:22:42;1.95;;;1.85;;
37383;SDS011;23258;49.718;11.082;2023-04-15T14:25:12;1.50;;;1.40;;
37383;SDS011;23258;49.718;11.082;2023-04-15T14:27:58;2.33;;;1.90;;
37383;SDS011;23258;49.718;11.082;2023-04-15T14:30:28;1.48;;;1.42;;
37383;SDS011;23258;49.718;11.082;2023-04-15T14:33:00;2.20;;;2.00;;
37383;SDS011;23258;49.718;11.082;2023-04-15T14:35:30;1.88;;;1.70;;
37383;SDS011;23258;49.718;11.082;2023-04-15T14:37:59;1.88;;;1.77;;
37383;SDS011;23258;49.718;11.082;2023-04-15T14:40:29;1.85;;;1.75;;
37383;SDS011;23258;49.718;11.082;2023-04-15T14:42:59;1.95;;;1.85;;
37383;SDS011;23258;49.718;11.082;2023-04-15T14:45:28;1.98;;;1.88;;
37383;SDS011;23258;49.718;11.082;2023-04-15T14:48:01;2.97;;;2.78;;
37383;SDS011;23258;49.718;11.082;2023-04-15T14:50:32;2.63;;;2.42;;
37383;SDS011;23258;49.718;11.082;2023-04-15T14:53:01;2.22;;;2.13;;
37383;SDS011;23258;49.718;11.082;2023-04-15T14:55:32;2.30;;;2.20;;
37383;SDS011;23258;49.718;11.082;2023-04-15T14:58:01;2.92;;;2.22;;